Time;durP1;ratioP1;P1;durP2;ratioP2;P2;SDS_P1;SDS_P2;PMS_P1;PMS_P2;Temp;Humidity;BMP_temperature;BMP_pressure;BME280_temperature;BME280_humidity;BME280_pressure;Samples;Min_cycle;Max_cycle;Signal;HPM_P1;HPM_P2
2023/12/16 00:00:43;;;;;;;10.35;2.58;;;7.00;99.90;;;;;;5074646;28;20481;-47
2023/12/16 00:03:10;;;;;;;9.07;2.40;;;6.90;99.90;;;;;;5074746;28;20106;-49
2023/12/16 00:05:36;;;;;;;10.52;2.63;;;6.90;99.90;;;;;;5074559;28;20090;-50
2023/12/16 00:08:02;;;;;;;12.38;2.30;;;6.90;99.90;;;;;;5074709;28;20033;-49
2023/12/16 00:10:28;;;;;;;9.43;2.30;;;6.80;99.90;;;;;;5074555;28;20048;-48
2023/12/16 00:12:53;;;;;;;8.68;2.13;;;6.90;99.90;;;;;;5074532;28;20114;-48
2023/12/16 00:15:19;;;;;;;11.43;2.85;;;6.80;99.90;;;;;;5074407;28;20076;-50
2023/12/16 00:17:45;;;;;;;11.30;2.78;;;6.80;99.90;;;;;;5074610;28;20090;-48
2023/12/16 00:20:11;;;;;;;9.10;2.58;;;6.60;99.90;;;;;;5074507;28;20710;-50
2023/12/16 00:22:38;;;;;;;8.73;2.15;;;6.70;99.90;;;;;;5074611;28;20068;-47
2023/12/16 00:25:07;;;;;;;10.25;2.47;;;6.60;99.90;;;;;;5074354;28;20044;-47
2023/12/16 00:27:33;;;;;;;9.52;2.20;;;6.60;99.90;;;;;;5074213;28;20044;-50
2023/12/16 00:29:58;;;;;;;9.85;2.40;;;6.60;99.90;;;;;;5072927;28;20404;-46
2023/12/16 00:32:24;;;;;;;8.23;1.92;;;6.60;99.90;;;;;;5074040;28;20049;-48
2023/12/16 00:34:50;;;;;;;9.15;2.33;;;6.50;99.90;;;;;;5074289;28;20043;-49
2023/12/16 00:37:15;;;;;;;9.73;2.30;;;6.50;99.90;;;;;;5072910;28;20500;-49
2023/12/16 00:39:41;;;;;;;9.38;2.20;;;6.50;99.90;;;;;;5074062;28;20185;-50
2023/12/16 00:42:07;;;;;;;8.77;2.17;;;6.50;99.90;;;;;;5072701;28;20082;-47
2023/12/16 00:44:33;;;;;;;9.10;2.10;;;6.50;99.90;;;;;;5074229;28;20040;-47
2023/12/16 00:47:00;;;;;;;9.77;2.08;;;6.50;99.90;;;;;;5074001;28;20400;-46
2023/12/16 00:49:26;;;;;;;8.45;2.10;;;6.50;99.90;;;;;;5073952;28;20048;-46
2023/12/16 00:51:52;;;;;;;9.00;2.22;;;6.50;99.90;;;;;;5073753;28;20075;-45
2023/12/16 00:54:17;;;;;;;9.95;2.30;;;6.50;99.90;;;;;;5073557;28;20121;-46
2023/12/16 00:56:43;;;;;;;9.95;2.20;;;6.50;99.90;;;;;;5073651;28;20097;-46
2023/12/16 00:59:09;;;;;;;8.48;2.30;;;6.40;99.90;;;;;;5073672;28;20044;-47
2023/12/16 01:01:34;;;;;;;13.40;2.22;;;6.40;99.90;;;;;;5073810;28;20032;-46
2023/12/16 01:04:00;;;;;;;11.32;3.10;;;6.40;99.90;;;;;;5073682;28;20040;-46
2023/12/16 01:06:26;;;;;;;8.77;2.00;;;6.40;99.90;;;;;;5073458;28;20033;-47
2023/12/16 01:08:51;;;;;;;9.23;2.20;;;6.30;99.90;;;;;;5073397;28;20044;-46
2023/12/16 01:11:17;;;;;;;7.95;1.92;;;6.40;99.90;;;;;;5073624;28;20071;-46
2023/12/16 01:13:43;;;;;;;7.68;1.88;;;6.30;99.90;;;;;;5073416;28;20075;-46
2023/12/16 01:16:08;;;;;;;9.65;2.15;;;6.40;99.90;;;;;;5073526;28;20484;-47
2023/12/16 01:18:35;;;;;;;10.88;3.20;;;6.40;99.90;;;;;;5073325;28;20543;-51
2023/12/16 01:21:06;;;;;;;8.85;2.25;;;6.40;99.90;;;;;;5073540;28;20036;-47
2023/12/16 01:23:32;;;;;;;8.85;1.90;;;6.40;99.90;;;;;;5073159;28;20064;-47
2023/12/16 01:25:57;;;;;;;8.73;1.88;;;6.40;99.90;;;;;;5073281;28;20040;-50
2023/12/16 01:28:23;;;;;;;10.07;2.47;;;6.50;99.90;;;;;;5073407;28;20044;-48
2023/12/16 01:30:49;;;;;;;10.98;2.33;;;6.50;99.90;;;;;;5073021;28;20055;-47
2023/12/16 01:33:14;;;;;;;8.98;2.75;;;6.40;99.90;;;;;;5071655;28;20047;-48
2023/12/16 01:35:40;;;;;;;9.50;2.00;;;6.50;99.90;;;;;;5071605;28;20045;-49
2023/12/16 01:38:06;;;;;;;10.85;2.05;;;6.50;99.90;;;;;;5072596;28;20078;-48
2023/12/16 01:40:31;;;;;;;8.35;1.70;;;6.50;99.90;;;;;;5072702;28;20062;-47
2023/12/16 01:42:57;;;;;;;9.02;1.58;;;6.40;99.90;;;;;;5072942;28;20504;-47
2023/12/16 01:45:23;;;;;;;11.35;2.03;;;6.50;99.90;;;;;;5073035;28;20044;-49
2023/12/16 01:47:50;;;;;;;9.35;2.10;;;6.50;99.90;;;;;;5072697;28;20036;-49
2023/12/16 01:50:16;;;;;;;9.13;2.08;;;6.50;99.90;;;;;;5072965;28;20076;-49
2023/12/16 01:52:42;;;;;;;9.18;2.10;;;6.50;99.90;;;;;;5072641;28;20044;-50
2023/12/16 01:55:09;;;;;;;6.82;1.70;;;6.40;99.90;;;;;;5072464;28;20660;-47
2023/12/16 01:57:36;;;;;;;8.55;1.52;;;6.50;99.90;;;;;;5072400;28;20032;-48
2023/12/16 02:00:03;;;;;;;6.10;1.60;;;6.40;99.90;;;;;;5071286;28;20553;-49
2023/12/16 02:02:30;;;;;;;7.32;1.83;;;6.50;99.90;;;;;;5072503;28;20044;-46
2023/12/16 02:04:55;;;;;;;6.82;1.42;;;6.50;99.90;;;;;;5072458;28;20450;-46
2023/12/16 02:07:21;;;;;;;12.20;2.00;;;6.40;99.90;;;;;;5072364;28;20029;-46
2023/12/16 02:09:48;;;;;;;10.20;2.10;;;6.40;99.90;;;;;;5072496;28;20518;-47
2023/12/16 02:12:13;;;;;;;22.42;2.85;;;6.40;99.90;;;;;;5072417;28;20086;-49
2023/12/16 02:14:39;;;;;;;11.57;2.10;;;6.50;99.90;;;;;;5072143;28;20412;-47
2023/12/16 02:17:05;;;;;;;13.70;2.60;;;6.40;99.90;;;;;;5071769;28;20072;-46
2023/12/16 02:19:32;;;;;;;9.77;1.77;;;6.40;99.90;;;;;;5072365;28;20033;-47
2023/12/16 02:21:59;;;;;;;10.85;2.00;;;6.30;99.90;;;;;;5072186;28;20075;-48
2023/12/16 02:24:26;;;;;;;9.27;1.75;;;6.20;99.90;;;;;;5072405;28;20135;-46
2023/12/16 02:26:52;;;;;;;9.52;1.95;;;6.30;99.90;;;;;;5072202;28;20037;-48
2023/12/16 02:29:18;;;;;;;13.90;2.05;;;6.10;99.90;;;;;;5072334;28;20763;-47
2023/12/16 02:31:44;;;;;;;9.13;1.98;;;6.00;99.90;;;;;;5072308;28;20049;-47
2023/12/16 02:34:09;;;;;;;12.55;2.22;;;5.90;99.90;;;;;;5072173;28;20393;-48
2023/12/16 02:36:35;;;;;;;10.80;2.05;;;5.90;99.90;;;;;;5054200;28;20051;-46
2023/12/16 02:39:01;;;;;;;14.00;2.50;;;5.80;99.90;;;;;;5071638;28;20052;-46
2023/12/16 02:41:26;;;;;;;8.20;2.40;;;5.80;99.90;;;;;;5072253;28;20044;-46
2023/12/16 02:43:52;;;;;;;11.88;3.13;;;5.80;99.90;;;;;;5072251;28;20032;-47
2023/12/16 02:46:18;;;;;;;11.00;2.45;;;5.70;99.90;;;;;;5071765;28;20040;-48
2023/12/16 02:48:43;;;;;;;14.05;2.17;;;5.80;99.90;;;;;;5072070;28;20044;-46
2023/12/16 02:51:19;;;;;;;11.60;2.50;;;5.70;99.90;;;;;;5071902;28;20144;-47
2023/12/16 02:53:45;;;;;;;11.20;3.33;;;5.70;99.90;;;;;;5072101;28;20052;-47
2023/12/16 02:56:12;;;;;;;13.07;2.40;;;5.70;99.90;;;;;;5070916;28;20102;-47
2023/12/16 02:58:37;;;;;;;11.50;2.22;;;5.70;99.90;;;;;;5071749;28;20055;-46
2023/12/16 03:01:03;;;;;;;12.07;2.50;;;5.60;99.90;;;;;;5071961;28;20033;-47
2023/12/16 03:03:29;;;;;;;14.70;2.38;;;5.60;99.90;;;;;;5071606;28;20048;-48
2023/12/16 03:05:54;;;;;;;11.82;3.15;;;5.50;99.90;;;;;;5071623;28;20047;-50
2023/12/16 03:08:20;;;;;;;9.23;2.50;;;5.60;99.90;;;;;;5071965;28;20037;-49
2023/12/16 03:10:46;;;;;;;15.00;3.38;;;5.60;99.90;;;;;;5071957;28;20071;-48
2023/12/16 03:13:11;;;;;;;11.68;2.30;;;5.60;99.90;;;;;;5071717;28;20049;-47
2023/12/16 03:15:37;;;;;;;15.43;3.22;;;5.60;99.90;;;;;;5071500;28;20045;-49
2023/12/16 03:18:03;;;;;;;13.48;2.53;;;5.60;99.90;;;;;;5070204;28;20045;-46
2023/12/16 03:20:29;;;;;;;11.90;2.70;;;5.50;99.90;;;;;;5071103;28;20049;-46
2023/12/16 03:22:54;;;;;;;9.10;2.05;;;5.60;99.90;;;;;;5071596;28;20036;-46
2023/12/16 03:25:20;;;;;;;11.45;2.20;;;5.50;99.90;;;;;;5071540;28;20064;-46
2023/12/16 03:27:46;;;;;;;7.78;2.30;;;5.50;99.90;;;;;;5071669;28;20044;-46
2023/12/16 03:30:11;;;;;;;11.43;2.10;;;5.40;99.90;;;;;;5073270;28;20036;-46
2023/12/16 03:32:37;;;;;;;12.95;2.53;;;5.40;99.90;;;;;;5075178;28;20775;-48
2023/12/16 03:35:03;;;;;;;7.93;2.28;;;5.50;99.90;;;;;;5075229;28;20047;-46
2023/12/16 03:37:29;;;;;;;11.43;2.65;;;5.50;99.90;;;;;;5074838;28;20040;-50
2023/12/16 03:39:54;;;;;;;13.00;3.05;;;5.50;99.90;;;;;;5075282;28;20056;-46
2023/12/16 03:42:20;;;;;;;14.70;2.78;;;5.50;99.90;;;;;;5075077;28;20036;-47
2023/12/16 03:44:48;;;;;;;11.60;2.30;;;5.50;99.90;;;;;;5075011;28;20040;-47
2023/12/16 03:47:14;;;;;;;13.57;2.53;;;5.40;99.90;;;;;;5075121;28;20190;-47
2023/12/16 03:49:42;;;;;;;15.32;2.63;;;5.50;99.90;;;;;;5074831;28;20040;-47
2023/12/16 03:52:08;;;;;;;11.43;2.55;;;5.40;99.90;;;;;;5075112;28;20388;-48
2023/12/16 03:54:35;;;;;;;13.23;2.40;;;5.50;99.90;;;;;;5075014;28;20063;-48
2023/12/16 03:57:00;;;;;;;11.45;2.78;;;5.30;99.90;;;;;;5074889;28;20040;-46
2023/12/16 03:59:27;;;;;;;12.35;2.33;;;5.40;99.90;;;;;;5074930;28;20106;-48
2023/12/16 04:01:52;;;;;;;15.85;3.17;;;5.30;99.90;;;;;;5074775;28;20079;-46
2023/12/16 04:04:18;;;;;;;12.57;2.08;;;5.30;99.90;;;;;;5073617;28;20072;-45
2023/12/16 04:06:47;;;;;;;12.82;2.75;;;5.20;99.90;;;;;;5075208;28;20041;-47
2023/12/16 04:09:12;;;;;;;16.00;2.70;;;5.30;99.90;;;;;;5074737;28;20429;-47
2023/12/16 04:11:48;;;;;;;15.32;2.35;;;5.30;99.90;;;;;;5074606;28;20032;-49
2023/12/16 04:14:14;;;;;;;10.43;2.78;;;5.30;99.90;;;;;;5074506;28;20486;-47
2023/12/16 04:16:40;;;;;;;17.27;2.55;;;5.30;99.90;;;;;;5074314;28;20515;-46
2023/12/16 04:19:05;;;;;;;13.80;2.40;;;5.20;99.90;;;;;;5074540;28;20044;-48
2023/12/16 04:21:32;;;;;;;14.57;2.38;;;5.30;99.90;;;;;;5056596;28;20381;-48
2023/12/16 04:23:58;;;;;;;14.07;2.53;;;5.10;99.90;;;;;;5056641;28;20391;-48
2023/12/16 04:26:24;;;;;;;16.33;2.80;;;5.20;99.90;;;;;;5074203;28;20059;-46
2023/12/16 04:28:50;;;;;;;15.65;3.35;;;5.20;99.90;;;;;;5074278;28;20040;-50
2023/12/16 04:31:17;;;;;;;11.55;2.53;;;5.20;99.90;;;;;;5074133;28;20056;-47
2023/12/16 04:33:43;;;;;;;14.45;2.67;;;5.10;99.90;;;;;;5074165;28;20504;-49
2023/12/16 04:36:14;;;;;;;17.80;2.75;;;5.20;99.90;;;;;;5073151;28;20392;-50
2023/12/16 04:38:40;;;;;;;16.52;2.45;;;5.20;99.90;;;;;;5073970;28;20117;-48
2023/12/16 04:41:11;;;;;;;19.23;3.30;;;5.10;99.90;;;;;;5073671;28;20072;-48
2023/12/16 04:43:36;;;;;;;10.85;2.88;;;5.20;99.90;;;;;;5074280;28;20052;-46
2023/12/16 04:46:02;;;;;;;13.55;3.22;;;5.30;99.90;;;;;;5072626;28;20093;-46
2023/12/16 04:48:28;;;;;;;13.57;3.17;;;5.20;99.90;;;;;;5073883;28;20045;-46
2023/12/16 04:50:53;;;;;;;14.93;2.42;;;5.20;99.90;;;;;;5074028;28;20534;-51
2023/12/16 04:53:19;;;;;;;14.05;3.42;;;5.30;99.90;;;;;;5073710;28;20036;-47
2023/12/16 04:55:45;;;;;;;16.67;3.45;;;5.20;99.90;;;;;;5073948;28;20090;-48
2023/12/16 04:58:10;;;;;;;14.27;3.10;;;5.10;99.90;;;;;;5074147;28;20378;-48
2023/12/16 05:00:36;;;;;;;17.67;3.38;;;5.20;99.90;;;;;;5073658;28;20491;-46
2023/12/16 05:03:03;;;;;;;15.45;3.67;;;5.10;99.90;;;;;;5073759;28;20035;-47
2023/12/16 05:05:29;;;;;;;13.27;2.78;;;5.10;99.90;;;;;;5073515;28;20481;-47
2023/12/16 05:07:55;;;;;;;10.13;3.10;;;5.20;99.90;;;;;;5073378;28;20072;-49
2023/12/16 05:10:20;;;;;;;16.90;4.57;;;5.10;99.90;;;;;;5073632;28;20037;-46
2023/12/16 05:12:46;;;;;;;14.35;3.20;;;5.10;99.90;;;;;;5073360;28;20044;-47
2023/12/16 05:15:12;;;;;;;16.60;4.40;;;5.20;99.90;;;;;;5073324;28;20554;-49
2023/12/16 05:17:38;;;;;;;24.08;3.60;;;5.20;99.90;;;;;;5073542;28;20087;-48
2023/12/16 05:20:04;;;;;;;21.92;3.35;;;5.30;99.90;;;;;;5073390;28;20102;-49
2023/12/16 05:22:33;;;;;;;15.02;3.63;;;5.20;99.90;;;;;;5073167;28;20468;-47
2023/12/16 05:25:00;;;;;;;19.48;3.80;;;5.30;99.90;;;;;;5073238;28;20042;-48
2023/12/16 05:27:27;;;;;;;19.60;3.30;;;5.20;99.90;;;;;;5071695;28;20170;-50
2023/12/16 05:29:53;;;;;;;15.32;3.40;;;5.30;99.90;;;;;;5073069;28;20048;-50
2023/12/16 05:32:18;;;;;;;19.30;3.38;;;5.60;99.90;;;;;;5073263;28;20044;-48
2023/12/16 05:34:44;;;;;;;16.88;4.00;;;5.40;99.90;;;;;;5071859;28;20048;-50
2023/12/16 05:37:09;;;;;;;20.80;4.40;;;5.70;99.90;;;;;;5073110;28;20040;-46
2023/12/16 05:39:35;;;;;;;16.08;3.92;;;5.60;99.90;;;;;;5071314;28;20086;-48
2023/12/16 05:42:01;;;;;;;17.17;3.42;;;5.50;99.90;;;;;;5072918;28;20099;-47
2023/12/16 05:44:26;;;;;;;14.00;3.85;;;5.70;99.90;;;;;;5072510;28;20047;-46
2023/12/16 05:46:52;;;;;;;16.38;4.63;;;5.60;99.90;;;;;;5072659;28;20105;-46
2023/12/16 05:49:18;;;;;;;15.63;4.28;;;5.90;99.90;;;;;;5072527;28;20127;-46
2023/12/16 05:51:43;;;;;;;14.27;3.58;;;5.90;99.90;;;;;;5072066;28;20086;-46
2023/12/16 05:54:09;;;;;;;24.15;5.18;;;5.70;99.90;;;;;;5071004;28;20043;-48
2023/12/16 05:56:35;;;;;;;22.60;5.28;;;5.80;99.90;;;;;;5072399;28;20496;-50
2023/12/16 05:59:00;;;;;;;21.35;4.25;;;6.00;99.90;;;;;;5072375;28;20127;-49
2023/12/16 06:01:26;;;;;;;22.92;4.63;;;5.90;99.90;;;;;;5072581;28;20037;-47
2023/12/16 06:03:52;;;;;;;20.00;4.50;;;6.10;99.90;;;;;;5072622;28;20499;-46
2023/12/16 06:06:18;;;;;;;21.85;5.07;;;6.20;99.90;;;;;;5072534;28;20040;-47
2023/12/16 06:08:44;;;;;;;16.55;4.28;;;6.00;99.90;;;;;;5072266;28;20044;-46
2023/12/16 06:11:12;;;;;;;24.83;5.60;;;6.00;99.90;;;;;;5072275;28;20041;-47
2023/12/16 06:13:39;;;;;;;24.45;5.72;;;6.20;99.90;;;;;;5072552;28;20037;-47
2023/12/16 06:16:07;;;;;;;23.38;5.90;;;6.20;99.90;;;;;;5072575;28;20048;-45
2023/12/16 06:18:33;;;;;;;23.83;5.85;;;6.20;99.90;;;;;;5070845;28;20055;-45
2023/12/16 06:20:59;;;;;;;28.38;5.47;;;6.10;99.90;;;;;;5072293;28;20040;-49
2023/12/16 06:23:25;;;;;;;27.02;5.95;;;6.30;99.90;;;;;;5072103;28;20150;-47
2023/12/16 06:25:51;;;;;;;30.75;7.53;;;6.50;99.90;;;;;;5072150;28;20104;-46
2023/12/16 06:28:17;;;;;;;23.42;6.38;;;6.50;99.90;;;;;;5072034;28;20495;-46
2023/12/16 06:30:42;;;;;;;28.33;7.18;;;6.50;99.90;;;;;;5072375;28;20420;-46
2023/12/16 06:33:08;;;;;;;28.02;7.00;;;6.60;99.90;;;;;;5072219;28;20040;-46
2023/12/16 06:35:34;;;;;;;21.25;5.95;;;6.50;99.90;;;;;;5072331;28;20047;-51
2023/12/16 06:38:00;;;;;;;27.83;5.55;;;6.20;99.90;;;;;;5072071;28;20040;-47
2023/12/16 06:40:27;;;;;;;21.98;5.80;;;6.20;99.90;;;;;;5072180;28;20055;-47
2023/12/16 06:42:54;;;;;;;24.85;5.32;;;6.20;99.90;;;;;;5071925;28;20044;-50
2023/12/16 06:45:19;;;;;;;25.92;6.53;;;6.60;99.90;;;;;;5072230;28;20044;-50
2023/12/16 06:47:45;;;;;;;20.83;6.47;;;6.60;99.90;;;;;;5072081;28;20052;-49
2023/12/16 06:50:11;;;;;;;32.05;6.57;;;6.70;99.90;;;;;;5072059;28;20046;-47
2023/12/16 06:52:37;;;;;;;25.00;6.10;;;6.10;99.90;;;;;;5071833;28;20499;-46
2023/12/16 06:55:03;;;;;;;23.30;6.85;;;6.20;99.90;;;;;;5070488;28;20040;-50
2023/12/16 06:57:29;;;;;;;28.52;7.93;;;6.40;99.90;;;;;;5070524;28;20083;-47
2023/12/16 06:59:54;;;;;;;28.52;6.78;;;6.20;99.90;;;;;;5071950;28;20080;-50
2023/12/16 07:02:20;;;;;;;28.50;8.50;;;6.30;99.90;;;;;;5072007;28;20040;-46
2023/12/16 07:04:46;;;;;;;30.38;6.68;;;7.00;99.90;;;;;;5074709;28;20037;-49
2023/12/16 07:07:11;;;;;;;33.22;6.95;;;6.80;99.90;;;;;;5075764;28;20098;-50
2023/12/16 07:09:39;;;;;;;32.88;7.13;;;6.60;99.90;;;;;;5075567;28;20040;-50
2023/12/16 07:12:06;;;;;;;33.35;7.82;;;7.10;99.90;;;;;;5075635;28;20496;-49
2023/12/16 07:14:37;;;;;;;26.63;6.50;;;6.50;99.90;;;;;;5075715;28;20045;-49
2023/12/16 07:17:03;;;;;;;34.35;8.15;;;6.30;99.90;;;;;;5075793;28;20041;-50
2023/12/16 07:19:30;;;;;;;32.47;7.18;;;7.20;99.90;;;;;;5075596;28;20102;-47
2023/12/16 07:21:55;;;;;;;33.47;8.38;;;6.40;99.90;;;;;;5075353;28;20059;-47
2023/12/16 07:24:21;;;;;;;32.17;7.78;;;7.30;99.90;;;;;;5075081;28;20033;-48
2023/12/16 07:26:47;;;;;;;37.00;8.15;;;6.50;99.90;;;;;;5075204;28;20033;-47
2023/12/16 07:29:13;;;;;;;33.20;7.78;;;7.40;99.90;;;;;;5074055;28;20051;-51
2023/12/16 07:31:38;;;;;;;29.63;8.00;;;7.40;99.90;;;;;;5075135;28;20496;-46
2023/12/16 07:34:05;;;;;;;32.10;7.93;;;7.50;99.90;;;;;;5075365;28;20094;-50
2023/12/16 07:36:30;;;;;;;33.45;8.93;;;6.50;99.90;;;;;;5075002;28;20045;-46
2023/12/16 07:38:57;;;;;;;36.97;8.73;;;6.60;99.90;;;;;;5074680;28;20061;-51
2023/12/16 07:41:24;;;;;;;38.33;9.05;;;6.40;99.90;;;;;;5074701;28;20048;-48
2023/12/16 07:43:50;;;;;;;40.90;8.07;;;6.50;99.90;;;;;;5075132;28;20040;-47
2023/12/16 07:46:16;;;;;;;35.58;7.63;;;6.50;99.90;;;;;;5074977;28;20400;-46
2023/12/16 07:48:45;;;;;;;25.08;7.55;;;7.60;99.90;;;;;;5075080;28;20118;-47
2023/12/16 07:51:19;;;;;;;23.83;6.63;;;6.40;99.90;;;;;;5075095;28;20036;-48
2023/12/16 07:53:48;;;;;;;32.33;7.53;;;6.50;99.90;;;;;;5073700;28;20047;-47
2023/12/16 07:56:17;;;;;;;32.53;7.22;;;7.30;99.90;;;;;;5074673;28;20124;-48
2023/12/16 07:58:43;;;;;;;41.83;8.27;;;6.50;99.90;;;;;;5074658;28;20043;-47
2023/12/16 08:01:18;;;;;;;39.35;9.20;;;6.80;99.90;;;;;;5074791;28;20036;-48
2023/12/16 08:03:45;;;;;;;29.23;7.30;;;6.60;99.90;;;;;;5074747;28;20130;-47
2023/12/16 08:06:14;;;;;;;34.10;8.20;;;6.50;99.90;;;;;;5074536;28;20489;-49
2023/12/16 08:08:40;;;;;;;35.75;8.63;;;7.70;99.90;;;;;;5074710;28;20396;-47
2023/12/16 08:11:08;;;;;;;34.85;7.78;;;7.10;99.90;;;;;;5074772;28;20358;-46
2023/12/16 08:13:34;;;;;;;30.85;7.70;;;7.30;99.90;;;;;;5074314;28;20068;-47
2023/12/16 08:16:00;;;;;;;36.53;8.15;;;7.70;99.90;;;;;;5073609;28;20091;-46
2023/12/16 08:18:27;;;;;;;37.03;8.25;;;7.30;99.90;;;;;;5074162;28;20040;-46
2023/12/16 08:20:53;;;;;;;28.75;7.28;;;7.70;99.90;;;;;;5074500;28;20044;-45
2023/12/16 08:23:19;;;;;;;30.52;8.02;;;7.10;99.90;;;;;;5074447;28;20462;-47
2023/12/16 08:25:46;;;;;;;33.08;8.05;;;7.70;99.90;;;;;;5074371;28;20048;-50
2023/12/16 08:28:11;;;;;;;32.50;7.15;;;7.10;99.90;;;;;;5074050;28;20072;-48
2023/12/16 08:30:37;;;;;;;31.67;7.32;;;7.20;99.90;;;;;;5074209;28;20071;-51
2023/12/16 08:33:03;;;;;;;26.02;7.53;;;7.70;99.90;;;;;;5074198;28;20047;-50
2023/12/16 08:35:30;;;;;;;26.67;6.45;;;7.70;99.90;;;;;;5073875;28;20040;-50
2023/12/16 08:37:56;;;;;;;32.88;7.68;;;6.60;99.90;;;;;;5073772;28;20119;-51
2023/12/16 08:40:22;;;;;;;28.40;6.78;;;6.70;99.90;;;;;;5073855;28;20044;-50
2023/12/16 08:42:48;;;;;;;26.20;7.93;;;7.90;99.90;;;;;;5073752;28;20128;-49
2023/12/16 08:45:14;;;;;;;28.83;7.00;;;7.70;99.90;;;;;;5074062;28;20072;-50
2023/12/16 08:47:40;;;;;;;25.17;6.00;;;7.90;99.90;;;;;;5073575;28;20441;-48
2023/12/16 08:50:08;;;;;;;37.35;7.10;;;6.70;99.90;;;;;;5073667;28;20062;-49
2023/12/16 08:52:34;;;;;;;23.38;6.30;;;6.80;99.90;;;;;;5073568;28;20488;-46
2023/12/16 08:55:01;;;;;;;30.50;6.57;;;7.90;99.90;;;;;;5072361;28;20056;-47
2023/12/16 08:57:27;;;;;;;27.98;7.10;;;6.80;99.90;;;;;;5073755;28;20400;-48
2023/12/16 08:59:53;;;;;;;33.67;9.77;;;8.10;99.90;;;;;;5073589;28;20048;-51
2023/12/16 09:02:19;;;;;;;38.92;8.25;;;8.00;99.90;;;;;;5072564;28;20032;-49
2023/12/16 09:04:45;;;;;;;44.72;9.27;;;7.70;99.90;;;;;;5073462;28;20399;-48
2023/12/16 09:07:11;;;;;;;35.20;7.40;;;7.80;99.90;;;;;;5073318;28;20045;-48
2023/12/16 09:09:38;;;;;;;33.70;7.30;;;6.90;99.90;;;;;;5073468;28;20052;-50
2023/12/16 09:12:05;;;;;;;30.85;7.85;;;6.90;99.90;;;;;;5073654;28;20036;-47
2023/12/16 09:14:30;;;;;;;31.05;8.02;;;7.30;99.90;;;;;;5073245;28;20527;-48
2023/12/16 09:16:56;;;;;;;31.98;7.78;;;6.90;99.90;;;;;;5073124;28;20071;-50
2023/12/16 09:19:22;;;;;;;27.35;7.03;;;8.00;99.90;;;;;;5073440;28;20087;-48
2023/12/16 09:21:48;;;;;;;38.15;8.48;;;7.10;99.90;;;;;;5073206;28;20098;-46
2023/12/16 09:24:14;;;;;;;38.42;7.72;;;8.30;99.90;;;;;;5073264;28;20040;-49
2023/12/16 09:26:40;;;;;;;34.70;7.80;;;7.30;99.90;;;;;;5072819;28;20040;-47
2023/12/16 09:29:06;;;;;;;36.70;7.68;;;7.80;99.90;;;;;;5072907;28;20044;-47
2023/12/16 09:31:33;;;;;;;27.70;7.60;;;8.20;99.90;;;;;;5072935;28;20079;-47
2023/12/16 09:33:59;;;;;;;29.48;7.00;;;8.10;99.90;;;;;;5073184;28;20588;-48
2023/12/16 09:36:27;;;;;;;32.42;8.82;;;8.00;99.90;;;;;;5071838;28;20044;-47
2023/12/16 09:38:59;;;;;;;32.70;8.23;;;7.20;99.90;;;;;;5072469;28;20131;-50
2023/12/16 09:41:30;;;;;;;29.60;7.90;;;7.00;99.90;;;;;;5072730;28;20036;-47
2023/12/16 09:44:00;;;;;;;26.67;7.57;;;8.20;99.90;;;;;;5072624;28;20040;-49
2023/12/16 09:46:31;;;;;;;38.83;6.80;;;7.20;99.90;;;;;;5072768;28;20424;-47
2023/12/16 09:48:58;;;;;;;36.10;8.63;;;7.10;99.90;;;;;;5072658;28;20099;-46
2023/12/16 09:51:24;;;;;;;29.80;7.47;;;7.20;99.90;;;;;;5072585;28;20115;-47
2023/12/16 09:53:51;;;;;;;32.45;7.28;;;8.20;99.90;;;;;;5072500;28;20059;-48
2023/12/16 09:56:17;;;;;;;47.70;8.30;;;8.30;99.90;;;;;;5072046;28;20397;-46
2023/12/16 09:58:45;;;;;;;27.98;7.43;;;8.20;99.90;;;;;;5072764;28;20473;-47
2023/12/16 10:01:11;;;;;;;26.73;7.97;;;7.60;99.90;;;;;;5072664;28;20072;-49
2023/12/16 10:03:38;;;;;;;24.80;7.40;;;7.70;99.90;;;;;;5072350;28;20075;-47
2023/12/16 10:06:06;;;;;;;30.23;7.97;;;7.20;99.90;;;;;;5072472;28;20146;-50
2023/12/16 10:08:33;;;;;;;36.03;7.85;;;7.20;99.90;;;;;;5072508;28;20094;-48
2023/12/16 10:11:02;;;;;;;26.90;8.10;;;8.40;99.90;;;;;;5072442;28;20033;-46
2023/12/16 10:13:30;;;;;;;36.22;8.75;;;8.40;99.90;;;;;;5072248;28;20121;-46
2023/12/16 10:15:56;;;;;;;23.40;7.88;;;8.40;99.90;;;;;;5070917;28;20032;-49
2023/12/16 10:18:21;;;;;;;36.80;8.60;;;7.20;99.90;;;;;;5072502;28;20068;-49
2023/12/16 10:20:47;;;;;;;28.05;7.75;;;7.50;99.90;;;;;;5072219;28;20084;-50
2023/12/16 10:23:13;;;;;;;28.70;7.18;;;8.00;99.90;;;;;;5072449;28;20037;-51
2023/12/16 10:25:42;;;;;;;35.15;8.75;;;8.40;99.90;;;;;;5072173;28;20642;-49
2023/12/16 10:28:07;;;;;;;36.92;10.10;;;7.90;99.90;;;;;;5072500;28;20047;-48
2023/12/16 10:30:33;;;;;;;25.20;7.38;;;8.40;99.90;;;;;;5070898;28;20044;-48
2023/12/16 10:33:03;;;;;;;34.72;9.48;;;8.40;99.90;;;;;;5072011;28;20051;-48
2023/12/16 10:35:30;;;;;;;21.80;8.07;;;7.30;99.90;;;;;;5071802;28;20044;-49
2023/12/16 10:37:56;;;;;;;21.40;7.85;;;8.10;99.90;;;;;;5071346;28;20055;-46
2023/12/16 10:40:23;;;;;;;30.05;8.48;;;7.30;99.90;;;;;;5071232;28;20052;-46
2023/12/16 10:42:49;;;;;;;21.42;8.30;;;8.50;99.90;;;;;;5072091;28;20037;-46
2023/12/16 10:45:15;;;;;;;27.10;7.65;;;8.60;99.90;;;;;;5071698;28;20043;-45
2023/12/16 10:47:41;;;;;;;22.25;7.45;;;8.40;99.90;;;;;;5071914;28;20076;-46
2023/12/16 10:50:07;;;;;;;25.17;7.57;;;8.10;99.90;;;;;;5071925;28;20037;-47
2023/12/16 10:52:42;;;;;;;26.05;7.90;;;8.20;99.90;;;;;;5071815;28;20048;-48
2023/12/16 10:55:19;;;;;;;26.25;7.50;;;8.50;99.90;;;;;;5071807;28;20504;-46
2023/12/16 10:57:54;;;;;;;25.17;7.55;;;8.50;99.90;;;;;;5071662;28;20044;-46
2023/12/16 11:00:23;;;;;;;23.42;7.57;;;7.20;99.90;;;;;;5071948;28;20076;-48
2023/12/16 11:03:05;;;;;;;21.70;7.32;;;8.40;99.90;;;;;;5071837;28;20397;-47
2023/12/16 11:05:34;;;;;;;19.48;6.93;;;8.40;99.90;;;;;;5071750;28;20499;-49
2023/12/16 11:08:03;;;;;;;20.67;7.40;;;8.70;99.90;;;;;;5071866;28;20029;-50
2023/12/16 11:10:33;;;;;;;23.67;7.50;;;7.50;99.90;;;;;;5071795;28;20063;-48
2023/12/16 11:13:03;;;;;;;22.35;6.93;;;7.70;99.90;;;;;;5071729;28;20045;-46
2023/12/16 11:15:34;;;;;;;17.63;7.13;;;7.30;99.90;;;;;;5071671;28;20396;-48
2023/12/16 11:18:20;;;;;;;20.80;6.90;;;8.60;99.90;;;;;;5071871;28;20048;-48
2023/12/16 11:20:56;;;;;;;16.55;5.68;;;8.70;99.90;;;;;;5071504;28;20040;-48
2023/12/16 11:23:23;;;;;;;19.10;6.47;;;7.70;99.90;;;;;;5071514;28;20041;-50
2023/12/16 11:25:51;;;;;;;14.32;5.43;;;8.80;99.90;;;;;;5071526;28;20555;-48
2023/12/16 11:28:18;;;;;;;16.45;6.70;;;7.40;99.90;;;;;;5071951;28;20037;-46
2023/12/16 11:30:44;;;;;;;15.73;6.25;;;8.20;99.90;;;;;;5070316;28;20373;-47
2023/12/16 11:33:11;;;;;;;16.02;6.88;;;8.80;99.90;;;;;;5070303;28;20040;-48
2023/12/16 11:35:37;;;;;;;18.40;6.15;;;7.40;99.90;;;;;;5071489;28;20118;-48
2023/12/16 11:38:07;;;;;;;13.75;5.93;;;8.70;99.90;;;;;;5071426;28;20036;-51
2023/12/16 11:40:43;;;;;;;14.30;5.68;;;7.90;99.90;;;;;;5071463;28;20032;-51
2023/12/16 11:43:12;;;;;;;17.17;6.47;;;7.50;99.90;;;;;;5071307;28;20087;-50
2023/12/16 11:45:43;;;;;;;17.92;6.00;;;8.00;99.90;;;;;;5071505;28;20032;-48
2023/12/16 11:48:16;;;;;;;21.10;5.95;;;8.00;99.90;;;;;;5071503;28;20090;-48
2023/12/16 11:50:44;;;;;;;17.23;6.15;;;7.50;99.90;;;;;;5072104;28;20230;-49
2023/12/16 11:53:19;;;;;;;15.68;5.85;;;8.60;99.90;;;;;;5074847;28;20493;-48
2023/12/16 11:55:45;;;;;;;16.02;5.80;;;8.90;99.90;;;;;;5074838;28;20055;-47
2023/12/16 11:58:11;;;;;;;13.98;5.53;;;8.90;99.90;;;;;;5075007;28;20140;-47
2023/12/16 12:00:36;;;;;;;14.30;5.40;;;7.50;99.90;;;;;;5074718;28;20076;-46
2023/12/16 12:03:03;;;;;;;12.25;5.90;;;8.80;99.90;;;;;;5074718;28;20119;-47
2023/12/16 12:05:29;;;;;;;12.52;5.28;;;8.50;99.90;;;;;;5074684;28;20075;-49
2023/12/16 12:07:56;;;;;;;13.50;6.03;;;8.20;99.90;;;;;;5074940;28;20090;-47
2023/12/16 12:10:22;;;;;;;17.02;6.30;;;8.80;99.90;;;;;;5074768;28;20075;-50
2023/12/16 12:12:50;;;;;;;15.23;5.45;;;7.70;99.90;;;;;;5074543;28;20040;-47
2023/12/16 12:15:16;;;;;;;14.07;5.82;;;8.90;99.90;;;;;;5074468;28;20052;-48
2023/12/16 12:17:41;;;;;;;18.02;6.38;;;8.80;99.90;;;;;;5074524;28;20075;-50
2023/12/16 12:20:10;;;;;;;17.63;6.70;;;8.90;99.90;;;;;;5074357;28;20123;-48
2023/12/16 12:22:36;;;;;;;12.48;6.10;;;8.80;99.90;;;;;;5074358;28;20539;-51
2023/12/16 12:25:02;;;;;;;14.45;6.82;;;8.30;99.90;;;;;;5074593;28;20107;-47
2023/12/16 12:27:29;;;;;;;13.00;5.78;;;8.90;99.90;;;;;;5074268;28;20045;-49
2023/12/16 12:30:06;;;;;;;15.88;6.40;;;8.80;99.90;;;;;;5074175;28;20052;-50
2023/12/16 12:32:33;;;;;;;18.25;5.80;;;8.60;99.90;;;;;;5074453;28;20312;-47
2023/12/16 12:35:06;;;;;;;17.10;6.97;;;7.90;99.90;;;;;;5074428;28;20040;-47
2023/12/16 12:37:39;;;;;;;20.10;6.05;;;8.00;99.90;;;;;;5073991;28;20045;-49
2023/12/16 12:40:18;;;;;;;15.43;6.90;;;8.40;99.90;;;;;;5073819;28;20079;-47
2023/12/16 12:42:48;;;;;;;22.67;7.55;;;8.80;99.90;;;;;;5074025;28;20043;-50
2023/12/16 12:45:34;;;;;;;20.55;7.25;;;8.00;99.90;;;;;;5073754;28;20044;-48